Time;durP1;ratioP1;P1;durP2;ratioP2;P2;SDS_P1;SDS_P2;PMS_P1;PMS_P2;Temp;Humidity;BMP_temperature;BMP_pressure;BME280_temperature;BME280_humidity;BME280_pressure;Samples;Min_cycle;Max_cycle;Signal;HPM_P1;HPM_P2
2023/11/17 00:01:54;;;;;;;;;;;9.10;99.90;;;;;;21092556;28;19923;-81
2023/11/17 00:11:54;;;;;;;;;;;8.90;99.90;;;;;;21092868;28;19916;-81
2023/11/17 00:21:55;;;;;;;;;;;8.70;99.90;;;;;;21093402;28;20397;-81
2023/11/17 00:31:56;;;;;;;;;;;8.60;99.90;;;;;;21091553;28;19912;-80
2023/11/17 00:41:56;;;;;;;;;;;8.30;99.90;;;;;;21091781;28;19916;-81
2023/11/17 00:51:57;;;;;;;;;;;8.20;99.90;;;;;;21072114;28;19916;-81
2023/11/17 01:01:59;;;;;;;;;;;8.10;99.90;;;;;;21088700;28;19920;-80
2023/11/17 01:12:00;;;;;;;;;;;8.00;99.90;;;;;;21088439;28;19918;-81
2023/11/17 01:22:01;;;;;;;;;;;8.10;99.90;;;;;;21084572;28;19916;-80
2023/11/17 01:32:01;;;;;;;;;;;7.90;99.90;;;;;;21087188;28;19966;-80
2023/11/17 01:42:02;;;;;;;;;;;7.80;99.90;;;;;;21087138;28;19916;-80
2023/11/17 01:52:04;;;;;;;;;;;7.70;99.90;;;;;;21067294;28;20307;-81
2023/11/17 02:02:06;;;;;;;;;;;7.70;99.90;;;;;;21066830;28;19927;-80
2023/11/17 02:12:10;;;;;;;;;;;7.70;99.90;;;;;;21082000;28;19951;-82
2023/11/17 02:22:19;;;;;;;;;;;7.60;99.90;;;;;;21081988;28;19916;-83
2023/11/17 02:32:24;;;;;;;;;;;7.60;99.90;;;;;;21065610;28;19998;-82
2023/11/17 02:42:26;;;;;;;;;;;7.50;99.90;;;;;;21064684;28;19924;-82
2023/11/17 02:52:47;;;;;;;;;;;7.30;99.90;;;;;;21064257;28;20003;-82
2023/11/17 03:02:48;;;;;;;;;;;7.10;99.90;;;;;;21082001;28;19920;-82
2023/11/17 03:12:55;;;;;;;;;;;7.10;99.90;;;;;;21080671;28;20035;-81
2023/11/17 03:23:00;;;;;;;;;;;7.10;99.90;;;;;;21087600;28;19990;-81
2023/11/17 03:33:01;;;;;;;;;;;7.10;99.90;;;;;;21075044;28;19913;-82
2023/11/17 03:43:01;;;;;;;;;;;7.00;99.90;;;;;;21073961;28;19916;-82
2023/11/17 03:53:02;;;;;;;;;;;6.90;99.90;;;;;;21090023;28;19912;-83
2023/11/17 04:03:04;;;;;;;;;;;6.90;99.90;;;;;;21089815;28;19924;-84
2023/11/17 04:13:05;;;;;;;;;;;6.80;99.90;;;;;;21069972;28;19916;-82
2023/11/17 04:23:06;;;;;;;;;;;6.90;99.90;;;;;;21085247;28;19960;-82
2023/11/17 04:33:07;;;;;;;;;;;6.80;99.90;;;;;;21085307;28;19961;-82
2023/11/17 04:43:08;;;;;;;;;;;6.80;99.90;;;;;;21088495;28;20389;-83
2023/11/17 04:53:09;;;;;;;;;;;6.70;99.90;;;;;;21088490;28;20395;-82
2023/11/17 05:03:10;;;;;;;;;;;6.70;99.90;;;;;;21089409;28;19916;-83
2023/11/17 05:13:12;;;;;;;;;;;6.80;99.90;;;;;;21087491;28;19934;-82
2023/11/17 05:23:16;;;;;;;;;;;6.70;99.90;;;;;;21068723;28;20003;-84
2023/11/17 05:33:18;;;;;;;;;;;6.70;99.90;;;;;;21066004;28;19973;-84
2023/11/17 05:43:18;;;;;;;;;;;6.70;99.90;;;;;;21066015;28;19970;-83
2023/11/17 05:53:20;;;;;;;;;;;6.70;99.90;;;;;;21066687;28;19912;-83
2023/11/17 06:03:21;;;;;;;;;;;6.60;99.90;;;;;;21083594;28;19916;-83
2023/11/17 06:13:22;;;;;;;;;;;6.60;99.90;;;;;;21088347;28;19912;-84
2023/11/17 06:23:23;;;;;;;;;;;6.60;99.90;;;;;;21062727;28;19965;-83
2023/11/17 06:33:24;;;;;;;;;;;6.60;99.90;;;;;;21060605;28;20002;-82
2023/11/17 06:43:25;;;;;;;;;;;6.50;99.90;;;;;;21075940;28;19981;-83
2023/11/17 06:53:25;;;;;;;;;;;6.50;99.90;;;;;;21065646;28;19971;-82
2023/11/17 07:03:27;;;;;;;;;;;6.50;99.90;;;;;;21075124;28;20379;-83
2023/11/17 07:13:28;;;;;;;;;;;6.50;99.90;;;;;;21092291;28;19916;-84
2023/11/17 07:23:29;;;;;;;;;;;6.50;99.90;;;;;;21074370;28;19916;-84
2023/11/17 07:33:30;;;;;;;;;;;6.60;99.90;;;;;;21073698;28;19918;-84
2023/11/17 07:43:31;;;;;;;;;;;6.60;99.90;;;;;;21088992;28;19916;-83
2023/11/17 07:53:32;;;;;;;;;;;6.60;99.90;;;;;;21073935;28;19919;-82
2023/11/17 08:03:33;;;;;;;;;;;6.70;99.90;;;;;;21090540;28;19979;-83
2023/11/17 08:13:33;;;;;;;;;;;6.80;99.90;;;;;;21072378;28;20322;-83
2023/11/17 08:23:34;;;;;;;;;;;6.80;99.90;;;;;;21073215;28;20002;-84
2023/11/17 08:33:35;;;;;;;;;;;6.80;99.90;;;;;;21069749;28;19919;-82
2023/11/17 08:43:35;;;;;;;;;;;6.80;99.90;;;;;;21067460;28;19916;-82
2023/11/17 08:53:39;;;;;;;;;;;6.60;99.90;;;;;;21083623;28;19916;-83
2023/11/17 09:03:42;;;;;;;;;;;6.60;99.90;;;;;;21066297;28;19959;-83
2023/11/17 09:13:43;;;;;;;;;;;6.60;99.90;;;;;;21064708;28;20379;-82
2023/11/17 09:23:44;;;;;;;;;;;6.60;99.90;;;;;;21063492;28;20346;-82
2023/11/17 09:33:45;;;;;;;;;;;6.60;99.90;;;;;;21062320;28;19918;-83
2023/11/17 09:43:50;;;;;;;;;;;6.50;99.90;;;;;;21078666;28;19958;-82
2023/11/17 09:53:52;;;;;;;;;;;6.60;99.90;;;;;;21060885;28;19995;-82
2023/11/17 10:03:54;;;;;;;;;;;6.70;99.90;;;;;;21060938;28;20286;-82
2023/11/17 10:13:56;;;;;;;;;;;6.70;99.90;;;;;;21076294;28;19919;-83
2023/11/17 10:23:57;;;;;;;;;;;6.70;99.90;;;;;;21059047;28;19916;-82
2023/11/17 10:34:00;;;;;;;;;;;6.70;99.90;;;;;;21066384;28;19912;-82
2023/11/17 10:44:01;;;;;;;;;;;6.70;99.90;;;;;;21094474;28;19964;-82
2023/11/17 10:54:06;;;;;;;;;;;6.80;99.90;;;;;;21075310;28;20383;-82
2023/11/17 11:04:14;;;;;;;;;;;6.90;99.90;;;;;;21093214;28;19917;-83
2023/11/17 11:14:20;;;;;;;;;;;6.90;99.90;;;;;;21091224;28;19919;-82
2023/11/17 11:24:21;;;;;;;;;;;7.00;99.90;;;;;;21092495;28;20286;-82
2023/11/17 11:34:22;;;;;;;;;;;7.30;99.90;;;;;;21091881;28;19919;-83
2023/11/17 11:44:22;;;;;;;;;;;7.40;99.90;;;;;;21100176;28;19916;-82
2023/11/17 11:54:23;;;;;;;;;;;7.50;99.90;;;;;;21174145;28;20379;-83
2023/11/17 12:04:29;;;;;;;;;;;7.50;99.90;;;;;;21156079;28;19916;-82
2023/11/17 12:14:34;;;;;;;;;;;7.50;99.90;;;;;;21156489;28;19912;-82
2023/11/17 12:24:35;;;;;;;;;;;7.40;99.90;;;;;;21171942;28;19922;-82
2023/11/17 12:34:44;;;;;;;;;;;7.40;99.90;;;;;;21170799;28;19938;-82
2023/11/17 12:44:45;;;;;;;;;;;7.30;99.90;;;;;;21169826;28;19922;-82
2023/11/17 12:55:07;;;;;;;;;;;7.30;99.90;;;;;;21171233;28;19912;-82
2023/11/17 13:05:10;;;;;;;;;;;7.40;99.90;;;;;;21176387;28;20324;-83
2023/11/17 13:15:13;;;;;;;;;;;7.30;99.90;;;;;;21127821;28;19912;-82
2023/11/17 13:25:14;;;;;;;;;;;7.40;99.90;;;;;;21090076;28;20431;-83
2023/11/17 13:35:17;;;;;;;;;;;7.40;99.90;;;;;;21079263;28;19920;-82
2023/11/17 13:45:18;;;;;;;;;;;7.40;99.90;;;;;;21149619;28;19920;-83
2023/11/17 13:55:19;;;;;;;;;;;7.50;99.90;;;;;;21167705;28;19915;-82
2023/11/17 14:05:22;;;;;;;;;;;7.50;99.90;;;;;;21132484;28;20375;-83
2023/11/17 14:15:23;;;;;;;;;;;7.50;99.90;;;;;;21148905;28;20256;-84
2023/11/17 14:25:24;;;;;;;;;;;7.70;99.90;;;;;;21131057;28;19916;-83
2023/11/17 14:35:25;;;;;;;;;;;7.80;99.90;;;;;;21168668;27;19915;-83
2023/11/17 14:45:26;;;;;;;;;;;7.80;99.90;;;;;;21232256;28;20417;-83
2023/11/17 14:55:29;;;;;;;;;;;7.80;99.90;;;;;;21214785;28;19911;-82
2023/11/17 15:05:29;;;;;;;;;;;7.60;99.90;;;;;;21185239;28;19962;-83
2023/11/17 15:15:31;;;;;;;;;;;7.50;99.90;;;;;;21186537;28;19912;-82
2023/11/17 15:25:36;;;;;;;;;;;7.40;99.90;;;;;;21229718;27;19937;-85
2023/11/17 15:35:36;;;;;;;;;;;7.40;99.90;;;;;;21246916;27;19947;-85
2023/11/17 15:45:39;;;;;;;;;;;7.40;99.90;;;;;;21229301;27;19916;-85
2023/11/17 15:55:40;;;;;;;;;;;7.30;99.90;;;;;;21230144;27;19918;-86
2023/11/17 16:05:41;;;;;;;;;;;7.10;99.90;;;;;;21154772;27;19916;-86
2023/11/17 16:15:43;;;;;;;;;;;7.00;99.90;;;;;;21073715;28;20460;-85
2023/11/17 16:25:43;;;;;;;;;;;6.80;99.90;;;;;;21076415;28;19947;-86
2023/11/17 16:35:44;;;;;;;;;;;6.70;99.90;;;;;;21104273;27;19916;-85
2023/11/17 16:45:48;;;;;;;;;;;6.60;99.90;;;;;;21242285;27;19915;-85
2023/11/17 16:55:50;;;;;;;;;;;6.60;99.90;;;;;;21166473;27;19919;-86
2023/11/17 17:05:51;;;;;;;;;;;6.50;99.90;;;;;;21167874;28;19968;-87
2023/11/17 17:15:52;;;;;;;;;;;6.40;99.90;;;;;;21134918;28;20069;-87
2023/11/17 17:25:54;;;;;;;;;;;6.40;99.90;;;;;;21151285;28;19916;-87
2023/11/17 17:35:57;;;;;;;;;;;6.30;99.90;;;;;;21152211;28;20309;-87
2023/11/17 17:45:58;;;;;;;;;;;6.30;99.90;;;;;;21149727;28;19923;-86
2023/11/17 17:55:59;;;;;;;;;;;6.40;99.90;;;;;;21134478;28;19916;-84
2023/11/17 18:06:02;;;;;;;;;;;6.30;99.90;;;;;;21163962;27;19973;-87
2023/11/17 18:16:02;;;;;;;;;;;6.30;99.90;;;;;;21219346;27;19936;-85
2023/11/17 18:26:04;;;;;;;;;;;6.20;99.90;;;;;;21235454;27;19915;-85
2023/11/17 18:36:06;;;;;;;;;;;6.10;99.90;;;;;;21233442;27;19923;-86
2023/11/17 18:46:07;;;;;;;;;;;6.10;99.90;;;;;;21231959;28;19915;-86
2023/11/17 18:56:09;;;;;;;;;;;6.00;99.90;;;;;;21223702;27;19912;-85
2023/11/17 19:06:10;;;;;;;;;;;5.90;99.90;;;;;;21251758;27;19920;-85
2023/11/17 19:16:10;;;;;;;;;;;6.00;99.90;;;;;;21249254;27;19919;-85
2023/11/17 19:26:12;;;;;;;;;;;6.00;99.90;;;;;;21246420;27;19915;-85
2023/11/17 19:36:13;;;;;;;;;;;6.10;99.90;;;;;;21083839;28;19951;-85
2023/11/17 19:46:14;;;;;;;;;;;6.10;99.90;;;;;;21091845;28;19916;-85
2023/11/17 19:56:15;;;;;;;;;;;6.00;99.90;;;;;;21076323;28;19918;-86
2023/11/17 20:06:16;;;;;;;;;;;6.00;99.90;;;;;;21139618;27;19916;-86
2023/11/17 20:16:17;;;;;;;;;;;6.00;99.90;;;;;;21134254;27;19912;-87
2023/11/17 20:26:18;;;;;;;;;;;5.90;99.90;;;;;;21142334;27;19939;-85
2023/11/17 20:36:20;;;;;;;;;;;5.80;99.90;;;;;;21141136;28;19998;-84
2023/11/17 20:46:24;;;;;;;;;;;5.80;99.90;;;;;;21135415;28;19916;-83
2023/11/17 20:56:25;;;;;;;;;;;5.80;99.90;;;;;;21136306;28;19912;-84
2023/11/17 21:06:26;;;;;;;;;;;5.80;99.90;;;;;;21170796;28;19916;-83
2023/11/17 21:16:27;;;;;;;;;;;5.80;99.90;;;;;;21134449;28;19911;-86
2023/11/17 21:26:27;;;;;;;;;;;5.80;99.90;;;;;;21135676;28;20293;-83
2023/11/17 21:36:28;;;;;;;;;;;5.80;99.90;;;;;;21170916;28;19967;-83
2023/11/17 21:46:29;;;;;;;;;;;5.80;99.90;;;;;;21171257;28;19919;-84
2023/11/17 21:56:29;;;;;;;;;;;5.80;99.90;;;;;;21150533;27;19961;-82
2023/11/17 22:06:31;;;;;;;;;;;5.80;99.90;;;;;;21127732;28;19996;-85
2023/11/17 22:16:31;;;;;;;;;;;5.80;99.90;;;;;;21143795;28;20386;-84
2023/11/17 22:26:37;;;;;;;;;;;5.80;99.90;;;;;;21142529;28;20418;-83
2023/11/17 22:36:38;;;;;;;;;;;5.90;99.90;;;;;;21129989;28;19919;-85
2023/11/17 22:46:38;;;;;;;;;;;5.90;99.90;;;;;;21152914;28;19922;-87
2023/11/17 22:56:41;;;;;;;;;;;5.90;99.90;;;;;;21127172;28;19981;-84
2023/11/17 23:06:42;;;;;;;;;;;5.90;99.90;;;;;;21181962;28;19972;-85
2023/11/17 23:16:42;;;;;;;;;;;5.90;99.90;;;;;;21162778;28;19939;-84
2023/11/17 23:26:43;;;;;;;;;;;5.90;99.90;;;;;;21174657;28;19919;-85
2023/11/17 23:36:44;;;;;;;;;;;5.70;99.90;;;;;;21186081;28;19916;-85
2023/11/17 23:46:44;;;;;;;;;;;5.60;99.90;;;;;;21146192;28;20006;-83
2023/11/17 23:56:45;;;;;;;;;;;5.40;99.90;;;;;;21143977;28;19973;-85
